createdAt,value
2017-11-16T00:01:57.439Z,11.20
2017-11-16T00:04:25.880Z,11.40
2017-11-16T00:06:52.239Z,11.40
2017-11-16T00:09:18.555Z,11.30
2017-11-16T00:11:44.827Z,11.30
2017-11-16T00:14:11.495Z,11.30
2017-11-16T00:16:37.831Z,11.30
2017-11-16T00:19:04.204Z,11.60
2017-11-16T00:21:31.230Z,11.20
2017-11-16T00:23:58.275Z,11.20
2017-11-16T00:26:24.571Z,11.20
2017-11-16T00:28:50.944Z,11.20
2017-11-16T00:31:17.242Z,11.10
2017-11-16T00:33:44.277Z,11.10
2017-11-16T00:36:10.459Z,11.00
2017-11-16T00:38:36.575Z,11.10
2017-11-16T00:41:03.746Z,11.10
2017-11-16T00:43:29.868Z,11.10
2017-11-16T00:45:56.702Z,11.00
2017-11-16T00:48:22.818Z,11.00
2017-11-16T00:50:49.649Z,11.10
2017-11-16T00:53:15.740Z,11.10
2017-11-16T00:55:42.106Z,11.00
2017-11-16T00:58:08.509Z,10.90
2017-11-16T01:00:34.838Z,10.80
2017-11-16T01:03:01.175Z,10.80
2017-11-16T01:05:27.516Z,10.70
2017-11-16T01:07:54.275Z,10.70
2017-11-16T01:10:22.655Z,10.70
2017-11-16T01:12:49.487Z,10.70
2017-11-16T01:15:15.804Z,10.60
2017-11-16T01:17:42.075Z,10.70
2017-11-16T01:20:09.149Z,10.50
2017-11-16T01:22:35.298Z,10.60
2017-11-16T01:25:01.420Z,10.80
2017-11-16T01:27:30.086Z,10.50
2017-11-16T01:29:56.993Z,10.60
2017-11-16T01:32:23.107Z,10.60
2017-11-16T01:34:53.880Z,10.50
2017-11-16T01:37:20.927Z,10.60
2017-11-16T01:39:47.022Z,10.60
2017-11-16T01:42:13.133Z,10.60
2017-11-16T01:44:39.226Z,10.60
2017-11-16T01:47:05.316Z,10.90
2017-11-16T01:49:32.148Z,10.70
2017-11-16T01:51:58.227Z,10.80
2017-11-16T01:54:24.310Z,10.80
2017-11-16T01:56:50.383Z,10.70
2017-11-16T01:59:16.504Z,10.70
2017-11-16T02:01:43.374Z,10.60
2017-11-16T02:04:09.488Z,10.60
2017-11-16T02:06:36.319Z,10.70
2017-11-16T02:09:03.155Z,10.60
2017-11-16T02:11:30.008Z,10.50
2017-11-16T02:13:56.844Z,10.60
2017-11-16T02:16:22.906Z,10.90
2017-11-16T02:18:49.708Z,10.50
2017-11-16T02:21:15.816Z,10.50
2017-11-16T02:23:42.641Z,10.60
2017-11-16T02:26:08.699Z,10.60
2017-11-16T02:28:35.521Z,10.70
2017-11-16T02:31:01.765Z,10.70
2017-11-16T02:33:27.882Z,10.70
2017-11-16T02:35:53.961Z,10.70
2017-11-16T02:38:20.780Z,10.70
2017-11-16T02:40:46.868Z,10.70
2017-11-16T02:43:12.948Z,10.80
2017-11-16T02:45:39.032Z,10.80
2017-11-16T02:48:06.090Z,10.80
2017-11-16T02:50:33.244Z,10.90
2017-11-16T02:53:00.304Z,10.90
2017-11-16T02:55:26.800Z,10.80
2017-11-16T02:57:53.823Z,10.80
2017-11-16T03:00:20.641Z,10.80
2017-11-16T03:02:46.781Z,10.80
2017-11-16T03:05:12.905Z,10.90
2017-11-16T03:07:39.168Z,10.90
2017-11-16T03:10:05.462Z,10.90
2017-11-16T03:12:31.778Z,10.80
2017-11-16T03:14:58.082Z,10.80
2017-11-16T03:17:24.353Z,10.70
2017-11-16T03:19:51.400Z,10.60
2017-11-16T03:22:17.683Z,10.60
2017-11-16T03:24:43.984Z,10.60
2017-11-16T03:27:10.715Z,10.50
2017-11-16T03:29:37.015Z,10.50
2017-11-16T03:32:03.395Z,10.50
2017-11-16T03:34:30.958Z,10.40
2017-11-16T03:36:57.289Z,10.50
2017-11-16T03:39:23.605Z,10.40
2017-11-16T03:41:49.903Z,10.40
2017-11-16T03:44:16.242Z,10.50
2017-11-16T03:46:42.582Z,10.60
2017-11-16T03:49:08.916Z,10.50
2017-11-16T03:51:35.225Z,10.50
2017-11-16T03:54:02.272Z,10.40
2017-11-16T03:56:28.628Z,10.40
2017-11-16T03:58:55.672Z,10.40
2017-11-16T04:01:21.959Z,10.50
2017-11-16T04:03:48.270Z,9.90
2017-11-16T04:06:14.531Z,10.30
2017-11-16T04:08:40.821Z,10.20
2017-11-16T04:11:07.117Z,10.20
2017-11-16T04:13:34.249Z,10.20
2017-11-16T04:16:00.538Z,10.20
2017-11-16T04:18:26.874Z,10.10
2017-11-16T04:20:53.188Z,10.00
2017-11-16T04:23:19.470Z,9.60
2017-11-16T04:25:45.767Z,9.80
2017-11-16T04:28:12.807Z,9.90
2017-11-16T04:30:39.151Z,9.80
2017-11-16T04:33:05.467Z,10.00
2017-11-16T04:35:31.800Z,10.00
2017-11-16T04:37:58.087Z,10.00
2017-11-16T04:40:25.164Z,10.00
2017-11-16T04:42:52.189Z,10.10
2017-11-16T04:45:20.377Z,10.10
2017-11-16T04:47:46.495Z,10.00
2017-11-16T04:50:12.598Z,10.20
2017-11-16T04:52:38.679Z,10.20
2017-11-16T04:55:04.790Z,10.20
2017-11-16T04:57:30.888Z,10.20
2017-11-16T04:59:57.727Z,10.30
2017-11-16T05:02:24.603Z,10.30
2017-11-16T05:04:51.435Z,10.30
2017-11-16T05:07:17.539Z,10.30
2017-11-16T05:09:43.610Z,10.20
2017-11-16T05:12:09.795Z,10.20
2017-11-16T05:14:36.073Z,10.20
2017-11-16T05:17:02.165Z,10.20
2017-11-16T05:19:28.605Z,10.10
2017-11-16T05:21:55.417Z,9.80
2017-11-16T05:24:21.527Z,9.80
2017-11-16T05:26:47.639Z,9.90
2017-11-16T05:29:14.460Z,9.90
2017-11-16T05:31:40.564Z,9.90
2017-11-16T05:34:07.273Z,9.90
2017-11-16T05:36:34.144Z,9.90
2017-11-16T05:39:00.219Z,9.90
2017-11-16T05:41:26.319Z,9.80
2017-11-16T05:43:53.625Z,9.70
2017-11-16T05:46:19.750Z,9.60
2017-11-16T05:48:46.042Z,10.00
2017-11-16T05:51:12.361Z,9.70
2017-11-16T05:53:38.707Z,9.70
2017-11-16T05:56:05.025Z,9.70
2017-11-16T05:58:31.310Z,9.80
2017-11-16T06:00:59.336Z,9.80
2017-11-16T06:03:25.644Z,9.70
2017-11-16T06:05:52.031Z,9.80
2017-11-16T06:08:18.304Z,9.80
2017-11-16T06:10:44.706Z,9.70
2017-11-16T06:13:10.983Z,9.80
2017-11-16T06:15:37.266Z,9.80
2017-11-16T06:18:04.271Z,9.50
2017-11-16T06:20:30.345Z,9.40
2017-11-16T06:22:56.603Z,9.60
2017-11-16T06:25:22.889Z,9.50
2017-11-16T06:27:49.159Z,9.60
2017-11-16T06:30:15.469Z,9.60
2017-11-16T06:32:41.753Z,9.50
2017-11-16T06:35:08.056Z,9.50
2017-11-16T06:37:34.371Z,9.50
2017-11-16T06:40:00.679Z,9.50
2017-11-16T06:42:26.979Z,9.70
2017-11-16T06:44:53.254Z,9.40
2017-11-16T06:47:19.723Z,9.40
2017-11-16T06:49:46.051Z,9.40
2017-11-16T06:52:12.307Z,9.30
2017-11-16T06:54:39.331Z,9.30
2017-11-16T06:57:05.635Z,9.30
2017-11-16T06:59:31.907Z,9.30
2017-11-16T07:01:59.273Z,9.50
2017-11-16T07:04:25.677Z,9.40
2017-11-16T07:06:52.687Z,9.50
2017-11-16T07:09:18.979Z,9.50
2017-11-16T07:11:45.308Z,9.60
2017-11-16T07:14:11.584Z,9.70
2017-11-16T07:16:38.636Z,9.70
2017-11-16T07:19:05.213Z,9.70
2017-11-16T07:21:31.522Z,9.70
2017-11-16T07:23:57.820Z,9.60
2017-11-16T07:26:24.115Z,9.60
2017-11-16T07:28:50.432Z,9.70
2017-11-16T07:31:16.660Z,9.70
2017-11-16T07:33:43.722Z,9.40
2017-11-16T07:36:10.784Z,9.50
2017-11-16T07:41:33.423Z,9.50
2017-11-16T07:43:59.697Z,9.30
2017-11-16T07:46:26.733Z,9.30
2017-11-16T07:48:53.026Z,9.30
2017-11-16T07:51:23.468Z,9.20
2017-11-16T07:53:49.734Z,9.30
2017-11-16T07:56:16.771Z,9.40
2017-11-16T07:58:43.063Z,9.40
2017-11-16T08:01:09.339Z,9.60
2017-11-16T08:03:35.610Z,9.60
2017-11-16T08:06:02.063Z,9.60
2017-11-16T08:08:34.642Z,9.50
2017-11-16T08:11:00.748Z,9.50
2017-11-16T08:13:26.942Z,9.90
2017-11-16T08:15:53.055Z,9.40
2017-11-16T08:18:19.368Z,9.20
2017-11-16T08:20:46.364Z,9.40
2017-11-16T08:23:12.606Z,9.40
2017-11-16T08:25:39.592Z,9.40
2017-11-16T08:28:07.799Z,9.40
2017-11-16T08:30:34.095Z,9.40
2017-11-16T08:33:00.403Z,9.50
2017-11-16T08:35:26.705Z,9.50
2017-11-16T08:37:52.975Z,9.60
2017-11-16T08:40:19.281Z,9.70
2017-11-16T08:42:45.615Z,9.60
2017-11-16T08:45:11.893Z,9.50
2017-11-16T08:47:40.220Z,9.70
2017-11-16T08:50:06.550Z,9.60
2017-11-16T08:52:32.807Z,9.50
2017-11-16T08:54:59.847Z,9.70
2017-11-16T08:57:26.898Z,9.70
2017-11-16T08:59:53.213Z,9.70
2017-11-16T09:02:23.190Z,9.80
2017-11-16T09:04:49.461Z,9.70
2017-11-16T09:07:15.703Z,9.80
2017-11-16T09:09:42.712Z,9.80
2017-11-16T09:12:09.022Z,9.80
2017-11-16T09:14:36.092Z,9.80
2017-11-16T09:17:02.391Z,9.80
2017-11-16T09:19:31.325Z,9.80
2017-11-16T09:21:57.680Z,9.80
2017-11-16T09:24:23.938Z,9.80
2017-11-16T09:26:50.959Z,9.80
2017-11-16T09:29:21.107Z,9.80
2017-11-16T09:31:47.433Z,9.70
2017-11-16T09:36:45.834Z,9.90
2017-11-16T09:39:12.313Z,10.20
2017-11-16T09:41:38.571Z,9.90
2017-11-16T09:44:04.854Z,10.00
2017-11-16T09:46:31.234Z,9.90
2017-11-16T09:48:57.518Z,9.80
2017-11-16T09:51:28.220Z,9.90
2017-11-16T09:53:54.450Z,10.00
2017-11-16T09:56:20.747Z,9.80
2017-11-16T09:58:47.779Z,10.00
2017-11-16T10:01:14.066Z,10.00
2017-11-16T10:03:41.082Z,9.90
2017-11-16T10:06:12.456Z,9.90
2017-11-16T10:08:38.515Z,10.00
2017-11-16T10:11:04.647Z,10.00
2017-11-16T10:13:30.769Z,10.10
2017-11-16T10:15:56.839Z,10.00
2017-11-16T10:18:22.915Z,10.10
2017-11-16T10:20:49.925Z,10.30
2017-11-16T10:23:19.381Z,10.20
2017-11-16T10:25:45.616Z,10.30
2017-11-16T10:28:11.856Z,10.40
2017-11-16T10:30:38.157Z,10.50
2017-11-16T10:33:04.448Z,10.50
2017-11-16T10:35:30.765Z,10.50
2017-11-16T10:37:57.044Z,10.10
2017-11-16T10:40:26.048Z,10.60
2017-11-16T10:42:52.283Z,10.60
2017-11-16T10:45:18.576Z,10.70
2017-11-16T10:47:44.844Z,10.60
2017-11-16T10:50:11.141Z,10.50
2017-11-16T10:52:37.412Z,10.40
2017-11-16T10:55:04.454Z,10.70
2017-11-16T10:57:30.787Z,10.60
2017-11-16T11:00:00.349Z,10.70
2017-11-16T11:02:27.376Z,10.90
2017-11-16T11:04:53.644Z,10.90
2017-11-16T11:07:20.723Z,10.90
2017-11-16T11:09:47.155Z,10.90
2017-11-16T11:12:13.410Z,10.70
2017-11-16T11:14:39.704Z,10.60
2017-11-16T11:17:05.983Z,10.70
2017-11-16T11:19:34.578Z,10.90
2017-11-16T11:22:00.887Z,11.00
2017-11-16T11:24:27.206Z,11.10
2017-11-16T11:26:53.470Z,11.20
2017-11-16T11:29:19.707Z,11.10
2017-11-16T11:31:46.015Z,11.10
2017-11-16T11:34:13.003Z,11.10
2017-11-16T11:36:39.307Z,11.10
2017-11-16T11:39:06.296Z,11.00
2017-11-16T11:41:32.579Z,11.00
2017-11-16T11:43:58.849Z,11.00
2017-11-16T11:46:25.905Z,11.10
2017-11-16T11:48:52.161Z,11.10
2017-11-16T11:51:19.156Z,11.10
2017-11-16T11:53:45.678Z,11.10
2017-11-16T11:56:11.950Z,11.20
2017-11-16T11:58:38.279Z,11.20
2017-11-16T12:01:04.560Z,11.20
2017-11-16T12:03:30.815Z,11.20
2017-11-16T12:05:57.059Z,11.20
2017-11-16T12:08:24.196Z,11.10
2017-11-16T12:10:50.441Z,11.10
2017-11-16T12:13:16.704Z,11.30
2017-11-16T12:15:43.044Z,11.40
2017-11-16T12:18:09.328Z,11.40
2017-11-16T12:20:35.637Z,11.40
2017-11-16T12:23:01.910Z,11.50
2017-11-16T12:25:28.920Z,11.60
2017-11-16T12:27:55.190Z,11.60
2017-11-16T12:30:22.219Z,11.60
2017-11-16T12:32:49.315Z,11.50
2017-11-16T12:35:15.609Z,11.50
2017-11-16T12:37:41.865Z,11.40
2017-11-16T12:40:08.105Z,11.50
2017-11-16T12:42:34.465Z,11.50
2017-11-16T12:45:00.753Z,11.50
2017-11-16T12:47:27.051Z,11.40
2017-11-16T12:49:53.324Z,11.40
2017-11-16T12:52:19.598Z,11.40
2017-11-16T12:54:45.892Z,11.50
2017-11-16T12:57:12.901Z,11.50
2017-11-16T12:59:39.228Z,11.50
2017-11-16T13:02:05.487Z,11.80
2017-11-16T13:04:32.711Z,11.30
2017-11-16T13:06:58.959Z,11.40
2017-11-16T13:09:25.212Z,11.50
2017-11-16T13:11:51.496Z,11.40
2017-11-16T13:14:18.512Z,11.20
2017-11-16T13:16:44.781Z,11.20
2017-11-16T13:19:11.048Z,11.20
2017-11-16T13:21:38.073Z,10.80
2017-11-16T13:24:04.334Z,10.80
2017-11-16T13:26:30.606Z,11.00
2017-11-16T13:28:57.601Z,10.90
2017-11-16T13:31:23.874Z,10.90
2017-11-16T13:33:50.157Z,11.10
2017-11-16T13:36:20.897Z,11.10
2017-11-16T13:38:47.386Z,11.10
2017-11-16T13:41:13.622Z,11.20
2017-11-16T13:43:40.724Z,11.20
2017-11-16T13:46:07.029Z,11.10
2017-11-16T13:48:33.414Z,11.20
2017-11-16T13:50:59.718Z,11.30
2017-11-16T13:53:25.977Z,11.60
2017-11-16T13:55:56.828Z,11.10
2017-11-16T13:58:23.120Z,11.10
2017-11-16T14:00:49.403Z,11.10
2017-11-16T14:03:16.476Z,10.70
2017-11-16T14:05:42.770Z,10.70
2017-11-16T14:08:09.080Z,10.90
2017-11-16T14:10:35.376Z,11.10
2017-11-16T14:13:08.198Z,11.10
2017-11-16T14:15:35.204Z,11.10
2017-11-16T14:18:01.302Z,11.10
2017-11-16T14:20:27.574Z,10.90
2017-11-16T14:22:53.847Z,11.00
2017-11-16T14:25:20.144Z,11.10
2017-11-16T14:27:47.158Z,11.10
2017-11-16T14:30:16.943Z,11.00
2017-11-16T14:32:43.935Z,11.40
2017-11-16T14:35:10.243Z,11.40
2017-11-16T14:37:36.604Z,11.30
2017-11-16T14:40:02.919Z,11.30
2017-11-16T14:42:29.277Z,11.30
2017-11-16T14:44:55.586Z,11.20
2017-11-16T14:47:25.630Z,11.20
2017-11-16T14:49:51.900Z,11.20
2017-11-16T14:52:18.184Z,11.10
2017-11-16T14:54:44.458Z,11.30
2017-11-16T14:57:11.570Z,11.20
2017-11-16T14:59:37.854Z,11.20
2017-11-16T15:02:04.097Z,11.10
2017-11-16T15:04:35.431Z,11.20
2017-11-16T15:07:02.416Z,11.10
2017-11-16T15:09:28.703Z,11.10
2017-11-16T15:11:55.002Z,11.30
2017-11-16T15:14:21.306Z,11.10
2017-11-16T15:16:47.595Z,11.20
2017-11-16T15:19:13.875Z,11.20
2017-11-16T15:21:45.342Z,11.20
2017-11-16T15:24:11.726Z,11.10
2017-11-16T15:26:38.035Z,11.10
2017-11-16T15:29:04.332Z,11.00
2017-11-16T15:31:30.616Z,11.00
2017-11-16T15:33:56.936Z,11.00
2017-11-16T15:38:54.321Z,10.90
2017-11-16T15:41:20.603Z,10.90
2017-11-16T15:43:46.851Z,10.90
2017-11-16T15:46:13.186Z,10.80
2017-11-16T15:48:39.461Z,10.80
2017-11-16T15:51:06.723Z,10.80
2017-11-16T15:53:33.031Z,10.80
2017-11-16T15:56:04.016Z,10.90
2017-11-16T15:58:31.012Z,10.90
2017-11-16T16:00:57.423Z,10.90
2017-11-16T16:03:24.333Z,10.80
2017-11-16T16:05:50.839Z,10.70
2017-11-16T16:08:17.144Z,10.70
2017-11-16T16:10:43.407Z,10.70
2017-11-16T16:13:13.379Z,10.80
2017-11-16T16:15:40.392Z,10.80
2017-11-16T16:18:06.731Z,10.80
2017-11-16T16:20:33.015Z,10.80
2017-11-16T16:23:00.049Z,10.80
2017-11-16T16:25:26.340Z,10.80
2017-11-16T16:27:52.684Z,10.90
2017-11-16T16:30:18.973Z,10.80
2017-11-16T16:32:48.684Z,10.50
2017-11-16T16:35:14.998Z,10.80
2017-11-16T16:37:41.330Z,10.70
2017-11-16T16:40:08.088Z,10.60
2017-11-16T16:42:34.360Z,10.60
2017-11-16T16:45:00.739Z,10.70
2017-11-16T16:47:27.116Z,10.80
2017-11-16T16:49:57.111Z,10.70
2017-11-16T16:52:24.137Z,10.70
2017-11-16T16:54:51.143Z,10.80
2017-11-16T16:57:17.493Z,10.70
2017-11-16T16:59:43.792Z,10.80
2017-11-16T17:02:10.164Z,10.80
2017-11-16T17:04:37.169Z,10.70
2017-11-16T17:07:06.886Z,10.70
2017-11-16T17:09:33.201Z,10.80
2017-11-16T17:11:59.554Z,10.80
2017-11-16T17:14:25.810Z,10.80
2017-11-16T17:16:52.826Z,10.90
2017-11-16T17:19:19.102Z,10.90
2017-11-16T17:21:45.391Z,10.60
2017-11-16T17:24:11.672Z,10.80
2017-11-16T17:26:42.070Z,10.90
2017-11-16T17:29:08.631Z,10.90
2017-11-16T17:31:34.906Z,10.90
2017-11-16T17:34:01.187Z,10.90
2017-11-16T17:36:27.443Z,10.80
2017-11-16T17:38:53.724Z,10.90
2017-11-16T17:41:20.020Z,10.90
2017-11-16T17:43:47.574Z,10.70
2017-11-16T17:46:13.855Z,10.70
2017-11-16T17:48:40.114Z,10.70
2017-11-16T17:51:06.416Z,10.80
2017-11-16T17:53:32.755Z,10.80
2017-11-16T17:55:59.784Z,10.80
2017-11-16T17:58:26.103Z,10.80
2017-11-16T18:03:23.842Z,10.80
2017-11-16T18:05:50.140Z,10.70
2017-11-16T18:08:16.426Z,11.00
2017-11-16T18:10:42.692Z,10.70
2017-11-16T18:13:08.962Z,10.70
2017-11-16T18:15:35.963Z,10.70
2017-11-16T18:18:03.834Z,10.70
2017-11-16T18:20:30.115Z,10.70
2017-11-16T18:22:56.478Z,10.90
2017-11-16T18:25:22.773Z,10.70
2017-11-16T18:27:49.092Z,10.80
2017-11-16T18:30:16.088Z,10.90
2017-11-16T18:32:42.339Z,10.90
2017-11-16T18:35:08.624Z,10.90
2017-11-16T18:37:41.305Z,10.90
2017-11-16T18:40:07.575Z,10.80
2017-11-16T18:42:33.945Z,10.60
2017-11-16T18:45:00.959Z,10.60
2017-11-16T18:47:27.248Z,10.70
2017-11-16T18:49:54.251Z,10.70
2017-11-16T18:52:22.863Z,10.70
2017-11-16T18:54:49.135Z,10.70
2017-11-16T18:57:15.394Z,10.70
2017-11-16T18:59:42.406Z,10.70
2017-11-16T19:02:08.675Z,10.70
2017-11-16T19:04:34.931Z,10.80
2017-11-16T19:07:01.299Z,10.80
2017-11-16T19:09:27.596Z,10.60
2017-11-16T19:12:00.796Z,10.50
2017-11-16T19:14:27.265Z,10.40
2017-11-16T19:16:53.576Z,10.40
2017-11-16T19:19:19.869Z,10.60
2017-11-16T19:21:46.166Z,10.40
2017-11-16T19:24:12.488Z,10.40
2017-11-16T19:26:38.710Z,10.50
2017-11-16T19:29:04.970Z,10.50
2017-11-16T19:31:34.179Z,10.50
2017-11-16T19:34:01.241Z,10.50
2017-11-16T19:36:27.507Z,10.50
2017-11-16T19:38:54.527Z,10.30
2017-11-16T19:41:20.904Z,10.30
2017-11-16T19:43:47.913Z,10.40
2017-11-16T19:46:14.918Z,10.30
2017-11-16T19:48:43.711Z,10.30
2017-11-16T19:51:09.982Z,10.30
2017-11-16T19:53:37.007Z,10.40
2017-11-16T19:56:03.257Z,10.30
2017-11-16T19:58:29.540Z,10.20
2017-11-16T20:00:55.774Z,10.20
2017-11-16T20:03:22.092Z,10.30
2017-11-16T20:05:48.336Z,10.30
2017-11-16T20:08:14.559Z,10.30
2017-11-16T20:10:45.077Z,10.10
2017-11-16T20:13:11.488Z,10.10
2017-11-16T20:15:37.987Z,10.10
2017-11-16T20:18:04.228Z,10.10
2017-11-16T20:20:30.500Z,10.20
2017-11-16T20:22:56.856Z,10.10
2017-11-16T20:25:23.868Z,10.10
2017-11-16T20:27:50.954Z,10.20
2017-11-16T20:30:20.950Z,9.70
2017-11-16T20:32:47.195Z,10.20
2017-11-16T20:35:13.584Z,10.20
2017-11-16T20:37:40.841Z,10.30
2017-11-16T20:40:08.981Z,10.30
2017-11-16T20:42:37.411Z,9.90
2017-11-16T20:45:09.896Z,10.20
2017-11-16T20:50:50.712Z,10.20
2017-11-16T20:53:23.109Z,10.10
2017-11-16T20:55:49.238Z,10.10
2017-11-16T20:58:15.322Z,10.20
2017-11-16T21:00:41.410Z,10.20
2017-11-16T21:03:07.512Z,10.20
2017-11-16T21:05:33.619Z,10.20
2017-11-16T21:08:00.464Z,10.20
2017-11-16T21:10:27.145Z,10.20
2017-11-16T21:12:53.304Z,10.20
2017-11-16T21:15:20.190Z,10.10
2017-11-16T21:17:46.272Z,10.10
2017-11-16T21:20:12.374Z,10.20
2017-11-16T21:22:38.431Z,10.30
2017-11-16T21:25:04.701Z,10.20
2017-11-16T21:27:31.901Z,10.30
2017-11-16T21:29:58.126Z,10.30
2017-11-16T21:32:24.222Z,10.30
2017-11-16T21:34:50.330Z,10.30
2017-11-16T21:37:16.464Z,10.30
2017-11-16T21:39:42.518Z,10.30
2017-11-16T21:42:08.629Z,10.30
2017-11-16T21:44:34.735Z,10.40
2017-11-16T21:47:01.554Z,10.30
2017-11-16T21:49:27.635Z,10.20
2017-11-16T21:51:54.493Z,10.30
2017-11-16T21:54:21.463Z,10.30
2017-11-16T21:56:47.534Z,10.30
2017-11-16T21:59:13.622Z,10.20
2017-11-16T22:01:40.485Z,10.30
2017-11-16T22:04:07.323Z,10.30
2017-11-16T22:06:34.217Z,10.30
2017-11-16T22:09:00.278Z,10.20
2017-11-16T22:11:26.380Z,10.50
2017-11-16T22:13:52.462Z,10.40
2017-11-16T22:16:18.530Z,10.40
2017-11-16T22:18:44.700Z,10.30
2017-11-16T22:21:10.828Z,10.30
2017-11-16T22:23:36.899Z,10.30
2017-11-16T22:26:02.972Z,10.20
2017-11-16T22:28:29.046Z,10.20
2017-11-16T22:30:55.294Z,10.20
2017-11-16T22:33:21.554Z,10.30
2017-11-16T22:35:47.830Z,10.30
2017-11-16T22:38:14.078Z,10.40
2017-11-16T22:40:40.351Z,10.40
2017-11-16T22:43:06.651Z,10.50
2017-11-16T22:45:32.929Z,10.50
2017-11-16T22:48:00.341Z,10.60
2017-11-16T22:50:26.498Z,10.60
2017-11-16T22:52:52.563Z,10.50
2017-11-16T22:55:18.827Z,10.40
2017-11-16T22:57:45.094Z,10.40
2017-11-16T23:00:11.457Z,10.90
2017-11-16T23:02:37.770Z,10.60
2017-11-16T23:05:04.047Z,10.60
2017-11-16T23:07:30.434Z,10.70
2017-11-16T23:09:57.452Z,10.70
2017-11-16T23:12:23.721Z,10.60
2017-11-16T23:14:49.978Z,10.60
2017-11-16T23:17:17.002Z,10.40
2017-11-16T23:19:43.274Z,10.80
2017-11-16T23:22:10.750Z,10.60
2017-11-16T23:24:37.771Z,10.60
2017-11-16T23:27:04.060Z,10.50
2017-11-16T23:29:30.387Z,10.60
2017-11-16T23:31:57.431Z,10.60
2017-11-16T23:34:23.667Z,10.60
2017-11-16T23:36:50.748Z,10.70
2017-11-16T23:39:17.030Z,10.70
2017-11-16T23:41:43.286Z,10.70
2017-11-16T23:44:09.558Z,10.80
2017-11-16T23:46:36.540Z,10.80
2017-11-16T23:49:02.818Z,10.80
2017-11-16T23:51:29.082Z,10.90
2017-11-16T23:53:55.370Z,11.00
2017-11-16T23:56:23.443Z,11.00
2017-11-16T23:58:49.691Z,11.00
